createdAt,value
2022-09-21T00:00:07.658Z,8.26
2022-09-21T00:02:57.329Z,8.31
2022-09-21T00:05:46.007Z,8.20
2022-09-21T00:08:36.228Z,8.20
2022-09-21T00:11:27.030Z,8.16
2022-09-21T00:14:15.600Z,7.94
2022-09-21T00:17:04.208Z,8.05
2022-09-21T00:19:53.096Z,8.04
2022-09-21T00:22:41.931Z,8.06
2022-09-21T00:25:31.718Z,8.04
2022-09-21T00:28:20.164Z,7.99
2022-09-21T00:31:11.003Z,7.82
2022-09-21T00:34:00.922Z,7.93
2022-09-21T00:36:49.435Z,8.07
2022-09-21T00:39:37.869Z,8.09
2022-09-21T00:42:30.207Z,8.09
2022-09-21T00:45:21.929Z,7.92
2022-09-21T00:48:10.779Z,7.90
2022-09-21T00:51:04.145Z,8.05
2022-09-21T00:53:55.800Z,8.02
2022-09-21T00:56:45.247Z,7.91
2022-09-21T00:59:36.857Z,8.07
2022-09-21T01:02:26.672Z,8.08
2022-09-21T01:05:15.203Z,7.98
2022-09-21T01:08:05.973Z,7.98
2022-09-21T01:11:10.098Z,7.98
2022-09-21T01:14:13.971Z,7.90
2022-09-21T01:17:10.040Z,7.79
2022-09-21T01:20:16.563Z,7.87
2022-09-21T01:23:39.939Z,7.80
2022-09-21T01:26:39.525Z,7.80
2022-09-21T01:29:32.982Z,7.79
2022-09-21T01:32:25.120Z,7.69
2022-09-21T01:35:16.032Z,7.50
2022-09-21T01:38:07.550Z,7.48
2022-09-21T01:40:59.720Z,7.53
2022-09-21T01:43:50.828Z,7.58
2022-09-21T01:46:40.680Z,7.55
2022-09-21T01:49:34.357Z,7.38
2022-09-21T01:52:25.710Z,7.26
2022-09-21T01:55:16.354Z,7.40
2022-09-21T01:58:16.551Z,7.26
2022-09-21T02:01:06.487Z,7.27
2022-09-21T02:03:59.813Z,7.19
2022-09-21T02:06:48.901Z,7.27
2022-09-21T02:09:38.249Z,7.22
2022-09-21T02:12:26.675Z,7.18
2022-09-21T02:15:15.228Z,7.28
2022-09-21T02:18:06.510Z,7.32
2022-09-21T02:20:58.299Z,7.22
2022-09-21T02:23:52.655Z,7.23
2022-09-21T02:26:45.192Z,7.23
2022-09-21T02:29:43.381Z,7.04
2022-09-21T02:32:36.073Z,7.10
2022-09-21T02:35:30.643Z,7.08
2022-09-21T02:38:26.450Z,6.94
2022-09-21T02:41:19.831Z,7.12
2022-09-21T02:44:14.069Z,6.93
2022-09-21T02:47:05.594Z,6.98
2022-09-21T02:49:55.757Z,7.05
2022-09-21T02:52:45.315Z,7.02
2022-09-21T02:55:35.263Z,7.02
2022-09-21T02:58:25.591Z,6.94
2022-09-21T03:01:16.079Z,7.03
2022-09-21T03:04:04.512Z,6.93
2022-09-21T03:06:53.048Z,6.86
2022-09-21T03:09:41.497Z,6.88
2022-09-21T03:12:32.653Z,6.84
2022-09-21T03:15:21.270Z,6.93
2022-09-21T03:18:11.279Z,6.84
2022-09-21T03:21:00.174Z,6.63
2022-09-21T03:23:48.729Z,6.82
2022-09-21T03:26:37.144Z,6.79
2022-09-21T03:29:26.962Z,6.80
2022-09-21T03:32:15.420Z,6.77
2022-09-21T03:35:04.836Z,6.80
2022-09-21T03:37:53.394Z,6.55
2022-09-21T03:40:41.944Z,6.79
2022-09-21T03:43:30.397Z,6.71
2022-09-21T03:46:20.319Z,6.61
2022-09-21T03:49:08.876Z,6.79
2022-09-21T03:51:58.250Z,6.78
2022-09-21T03:54:46.735Z,6.87
2022-09-21T03:57:35.287Z,6.65
2022-09-21T04:00:23.729Z,6.75
2022-09-21T04:03:13.529Z,6.62
2022-09-21T04:06:01.957Z,6.48
2022-09-21T04:08:50.387Z,6.58
2022-09-21T04:11:38.907Z,6.51
2022-09-21T04:14:27.720Z,6.54
2022-09-21T04:17:16.186Z,6.38
2022-09-21T04:20:07.542Z,6.23
2022-09-21T04:22:56.028Z,6.41
2022-09-21T04:25:45.024Z,6.46
2022-09-21T04:28:33.643Z,6.41
2022-09-21T04:31:22.657Z,6.33
2022-09-21T04:34:13.835Z,6.45
2022-09-21T04:37:03.676Z,6.38
2022-09-21T04:39:52.075Z,6.37
2022-09-21T04:42:40.492Z,6.38
2022-09-21T04:45:28.934Z,6.29
2022-09-21T04:48:17.939Z,6.20
2022-09-21T04:51:07.756Z,5.93
2022-09-21T04:53:57.627Z,6.09
2022-09-21T04:56:46.069Z,5.77
2022-09-21T04:59:34.471Z,6.12
2022-09-21T05:02:22.940Z,6.14
2022-09-21T05:05:11.359Z,6.11
2022-09-21T05:07:59.927Z,6.04
2022-09-21T05:10:48.826Z,5.92
2022-09-21T05:13:37.486Z,5.79
2022-09-21T05:16:26.024Z,6.11
2022-09-21T05:19:14.445Z,5.94
2022-09-21T05:22:03.058Z,5.97
2022-09-21T05:24:51.572Z,5.92
2022-09-21T05:27:41.479Z,5.81
2022-09-21T05:30:30.533Z,6.03
2022-09-21T05:33:20.487Z,5.99
2022-09-21T05:36:20.042Z,6.30
2022-09-21T05:39:09.129Z,6.25
2022-09-21T05:41:58.176Z,6.42
2022-09-21T05:44:49.471Z,6.44
2022-09-21T05:47:40.977Z,6.55
2022-09-21T05:50:35.587Z,6.68
2022-09-21T05:53:43.106Z,6.74
2022-09-21T05:56:40.542Z,6.86
2022-09-21T05:59:40.395Z,7.08
2022-09-21T06:02:50.095Z,7.27
2022-09-21T06:05:38.596Z,7.48
2022-09-21T06:08:27.537Z,7.85
2022-09-21T06:11:16.158Z,8.00
2022-09-21T06:14:04.596Z,8.15
2022-09-21T06:16:53.569Z,8.38
2022-09-21T06:19:43.372Z,8.55
2022-09-21T06:22:31.790Z,8.68
2022-09-21T06:25:20.958Z,8.72
2022-09-21T06:28:11.021Z,8.62
2022-09-21T06:30:59.854Z,8.84
2022-09-21T06:33:48.381Z,8.65
2022-09-21T06:36:38.159Z,8.86
2022-09-21T06:39:26.619Z,9.04
2022-09-21T06:42:15.047Z,9.23
2022-09-21T06:45:03.511Z,9.40
2022-09-21T06:47:52.128Z,9.48
2022-09-21T06:50:40.643Z,9.61
2022-09-21T06:53:31.250Z,9.90
2022-09-21T06:56:19.687Z,10.01
2022-09-21T06:59:08.318Z,10.30
2022-09-21T07:01:58.425Z,10.47
2022-09-21T07:04:47.162Z,10.79
2022-09-21T07:07:36.432Z,10.90
2022-09-21T07:10:26.711Z,10.91
2022-09-21T07:13:16.218Z,11.14
2022-09-21T07:16:05.808Z,11.48
2022-09-21T07:18:54.634Z,11.27
2022-09-21T07:21:43.062Z,11.65
2022-09-21T07:24:31.544Z,11.79
2022-09-21T07:27:22.490Z,12.10
2022-09-21T07:30:12.114Z,12.33
2022-09-21T07:33:00.590Z,12.40
2022-09-21T07:35:53.071Z,12.50
2022-09-21T07:38:42.738Z,12.51
2022-09-21T07:41:31.191Z,12.57
2022-09-21T07:44:22.499Z,12.48
2022-09-21T07:47:11.653Z,12.49
2022-09-21T07:50:00.134Z,12.85
2022-09-21T07:52:48.715Z,13.08
2022-09-21T07:55:37.147Z,13.39
2022-09-21T07:58:43.004Z,13.28
2022-09-21T08:01:33.864Z,13.54
2022-09-21T08:04:22.345Z,13.65
2022-09-21T08:07:10.788Z,13.56
2022-09-21T08:09:59.251Z,14.03
2022-09-21T08:12:47.774Z,14.21
2022-09-21T08:15:51.119Z,14.32
2022-09-21T08:18:42.247Z,14.59
2022-09-21T08:21:30.762Z,14.94
2022-09-21T08:24:19.733Z,15.16
2022-09-21T08:27:08.476Z,15.70
2022-09-21T08:29:57.708Z,15.73
2022-09-21T08:32:51.451Z,16.07
2022-09-21T08:35:41.740Z,15.95
2022-09-21T08:38:33.728Z,15.85
2022-09-21T08:41:25.195Z,15.94
2022-09-21T08:44:16.890Z,16.00
2022-09-21T08:47:09.518Z,16.24
2022-09-21T08:50:00.103Z,16.26
2022-09-21T08:52:50.107Z,16.06
2022-09-21T08:55:38.615Z,16.33
2022-09-21T08:58:29.068Z,16.28
2022-09-21T09:01:32.053Z,16.29
2022-09-21T09:04:30.794Z,16.42
2022-09-21T09:07:30.376Z,16.41
2022-09-21T09:10:34.788Z,16.17
2022-09-21T09:13:41.970Z,15.80
2022-09-21T09:16:36.616Z,16.40
2022-09-21T09:19:30.098Z,16.85
2022-09-21T09:22:21.238Z,16.89
2022-09-21T09:25:18.089Z,16.41
2022-09-21T09:28:30.890Z,16.71
2022-09-21T09:31:21.179Z,16.76
2022-09-21T09:34:13.446Z,17.05
2022-09-21T09:37:11.609Z,17.20
2022-09-21T09:40:02.419Z,17.26
2022-09-21T09:43:00.163Z,17.46
2022-09-21T09:46:00.268Z,17.43
2022-09-21T09:49:02.382Z,17.37
2022-09-21T09:51:51.471Z,17.61
2022-09-21T09:54:39.931Z,17.65
2022-09-21T09:57:30.729Z,17.87
2022-09-21T10:00:20.852Z,17.79
2022-09-21T10:03:18.291Z,17.56
2022-09-21T10:06:06.991Z,17.67
2022-09-21T10:08:55.621Z,17.72
2022-09-21T10:11:44.091Z,17.52
2022-09-21T10:14:35.660Z,17.49
2022-09-21T10:17:25.742Z,17.26
2022-09-21T10:20:18.320Z,17.41
2022-09-21T10:23:06.842Z,16.88
2022-09-21T10:26:03.860Z,16.63
2022-09-21T10:28:57.083Z,17.11
2022-09-21T10:31:56.033Z,16.97
2022-09-21T10:35:02.382Z,16.69
2022-09-21T10:38:10.404Z,16.93
2022-09-21T10:40:58.917Z,17.06
2022-09-21T10:43:47.826Z,17.17
2022-09-21T10:46:36.628Z,17.16
2022-09-21T10:49:27.296Z,17.36
2022-09-21T10:52:15.793Z,17.50
2022-09-21T10:55:06.767Z,17.63
2022-09-21T10:57:56.095Z,17.70
2022-09-21T11:00:48.064Z,17.66
2022-09-21T11:03:48.099Z,17.29
2022-09-21T11:06:41.511Z,17.99
2022-09-21T11:09:35.182Z,18.08
2022-09-21T11:12:35.349Z,18.51
2022-09-21T11:15:37.000Z,18.52
2022-09-21T11:18:35.913Z,17.72
2022-09-21T11:21:29.565Z,17.97
2022-09-21T11:24:24.308Z,17.85
2022-09-21T11:27:16.686Z,18.13
2022-09-21T11:30:11.944Z,18.34
2022-09-21T11:33:11.953Z,18.32
2022-09-21T11:36:05.019Z,18.14
2022-09-21T11:38:59.465Z,18.70
2022-09-21T11:42:11.026Z,18.60
2022-09-21T11:45:01.396Z,18.72
2022-09-21T11:48:01.612Z,18.63
2022-09-21T11:50:59.297Z,18.90
2022-09-21T11:54:05.577Z,18.97
2022-09-21T11:56:57.450Z,18.47
2022-09-21T12:00:04.159Z,18.74
2022-09-21T12:03:23.645Z,18.86
2022-09-21T12:06:18.968Z,18.63
2022-09-21T12:09:30.304Z,18.14
2022-09-21T12:12:22.547Z,17.89
2022-09-21T12:15:15.075Z,18.20
2022-09-21T12:18:10.123Z,18.75
2022-09-21T12:21:03.298Z,19.17
2022-09-21T12:23:54.949Z,19.23
2022-09-21T12:26:45.780Z,18.82
2022-09-21T12:29:39.376Z,18.48
2022-09-21T12:32:38.216Z,18.49
2022-09-21T12:35:34.789Z,18.45
2022-09-21T12:38:26.612Z,18.39
2022-09-21T12:41:18.273Z,18.31
2022-09-21T12:44:17.953Z,17.90
2022-09-21T12:47:10.548Z,18.36
2022-09-21T12:50:03.618Z,18.55
2022-09-21T12:52:53.860Z,18.69
2022-09-21T12:55:46.339Z,18.78
2022-09-21T12:58:55.248Z,18.53
2022-09-21T13:01:46.989Z,18.76
2022-09-21T13:04:46.835Z,18.93
2022-09-21T13:08:00.846Z,18.93
2022-09-21T13:10:59.318Z,18.98
2022-09-21T13:13:51.237Z,19.22
2022-09-21T13:16:40.500Z,19.11
2022-09-21T13:19:32.080Z,18.98
2022-09-21T13:22:24.149Z,19.02
2022-09-21T13:25:23.951Z,18.61
2022-09-21T13:28:23.987Z,18.55
2022-09-21T13:31:42.055Z,18.31
2022-09-21T13:34:33.487Z,18.65
2022-09-21T13:37:31.421Z,18.86
2022-09-21T13:40:42.439Z,18.97
2022-09-21T13:43:48.105Z,18.77
2022-09-21T13:46:51.668Z,18.42
2022-09-21T13:49:46.020Z,18.11
2022-09-21T13:52:44.713Z,18.37
2022-09-21T13:55:35.217Z,18.29
2022-09-21T13:58:28.314Z,18.55
2022-09-21T14:01:45.306Z,18.24
2022-09-21T14:04:31.196Z,18.12
2022-09-21T14:07:20.418Z,19.18
2022-09-21T14:10:10.033Z,19.14
2022-09-21T14:12:58.628Z,19.13
2022-09-21T14:15:48.590Z,19.09
2022-09-21T14:18:38.638Z,18.61
2022-09-21T14:21:27.268Z,18.35
2022-09-21T14:24:24.597Z,18.25
2022-09-21T14:27:17.606Z,18.35
2022-09-21T14:30:17.148Z,18.43
2022-09-21T14:33:22.203Z,18.40
2022-09-21T14:36:14.011Z,18.56
2022-09-21T14:39:05.625Z,18.64
2022-09-21T14:41:56.349Z,18.81
2022-09-21T14:44:45.031Z,18.60
2022-09-21T14:48:00.401Z,17.96
2022-09-21T14:50:53.172Z,18.48
2022-09-21T14:54:00.799Z,18.59
2022-09-21T14:57:01.296Z,18.61
2022-09-21T15:00:05.189Z,18.52
2022-09-21T15:03:06.385Z,18.32
2022-09-21T15:05:58.169Z,18.37
2022-09-21T15:09:09.969Z,18.47
2022-09-21T15:12:02.999Z,18.47
2022-09-21T15:14:57.702Z,18.38
2022-09-21T15:17:56.126Z,18.42
2022-09-21T15:21:01.654Z,18.32
2022-09-21T15:23:51.586Z,18.18
2022-09-21T15:26:40.794Z,18.00
2022-09-21T15:29:32.466Z,17.86
2022-09-21T15:32:28.992Z,17.84
2022-09-21T15:35:20.264Z,17.54
2022-09-21T15:38:29.060Z,17.78
2022-09-21T15:41:40.026Z,17.72
2022-09-21T15:44:34.076Z,17.70
2022-09-21T15:47:25.834Z,17.75
2022-09-21T15:50:15.536Z,17.89
2022-09-21T15:53:08.262Z,17.98
2022-09-21T15:56:01.431Z,18.02
2022-09-21T15:58:50.737Z,17.93
2022-09-21T16:01:42.734Z,17.94
2022-09-21T16:04:32.320Z,17.84
2022-09-21T16:07:26.988Z,17.54
2022-09-21T16:10:42.811Z,17.98
2022-09-21T16:13:50.871Z,17.94
2022-09-21T16:17:16.937Z,17.95
2022-09-21T16:20:19.747Z,17.87
2022-09-21T16:23:14.596Z,17.10
2022-09-21T16:26:03.105Z,17.72
2022-09-21T16:29:00.860Z,17.24
2022-09-21T16:31:50.767Z,17.30
2022-09-21T16:34:39.979Z,17.17
2022-09-21T16:37:29.799Z,17.14
2022-09-21T16:40:19.336Z,17.05
2022-09-21T16:43:09.657Z,17.07
2022-09-21T16:45:59.615Z,16.93
2022-09-21T16:48:48.957Z,16.89
2022-09-21T16:51:37.749Z,16.73
2022-09-21T16:54:27.325Z,16.74
2022-09-21T16:57:15.865Z,16.70
2022-09-21T17:00:07.649Z,16.59
2022-09-21T17:02:57.551Z,16.38
2022-09-21T17:05:46.173Z,16.46
2022-09-21T17:08:38.098Z,16.28
2022-09-21T17:11:27.062Z,16.24
2022-09-21T17:14:16.697Z,16.19
2022-09-21T17:17:12.986Z,16.10
2022-09-21T17:20:06.068Z,16.02
2022-09-21T17:22:54.578Z,15.95
2022-09-21T17:25:43.085Z,15.88
2022-09-21T17:28:32.222Z,15.78
2022-09-21T17:40:24.098Z,15.35
2022-09-21T17:43:22.199Z,15.20
2022-09-21T17:46:14.163Z,14.99
2022-09-21T17:49:03.397Z,14.53
2022-09-21T17:52:09.785Z,14.75
2022-09-21T17:55:02.315Z,14.56
2022-09-21T17:58:08.449Z,14.49
2022-09-21T18:01:01.010Z,14.35
2022-09-21T18:03:50.144Z,14.25
2022-09-21T18:06:39.184Z,14.10
2022-09-21T18:09:28.207Z,13.86
2022-09-21T18:12:48.610Z,13.83
2022-09-21T18:15:46.801Z,13.70
2022-09-21T18:18:43.058Z,13.41
2022-09-21T18:21:33.564Z,13.28
2022-09-21T18:24:27.434Z,13.20
2022-09-21T18:27:22.272Z,13.12
2022-09-21T18:30:12.962Z,13.09
2022-09-21T18:33:10.774Z,12.88
2022-09-21T18:36:08.907Z,12.96
2022-09-21T18:39:07.716Z,12.85
2022-09-21T18:42:07.286Z,12.71
2022-09-21T18:44:59.463Z,12.57
2022-09-21T18:48:04.957Z,12.57
2022-09-21T18:50:59.774Z,12.53
2022-09-21T18:53:52.838Z,12.44
2022-09-21T18:56:41.392Z,12.20
2022-09-21T18:59:32.021Z,12.31
2022-09-21T19:02:21.444Z,12.22
2022-09-21T19:05:12.924Z,12.15
2022-09-21T19:08:09.173Z,12.09
2022-09-21T19:11:02.906Z,11.97
2022-09-21T19:13:57.443Z,11.89
2022-09-21T19:16:57.777Z,11.83
2022-09-21T19:19:55.808Z,11.82
2022-09-21T19:22:50.422Z,11.74
2022-09-21T19:25:48.832Z,11.78
2022-09-21T19:28:52.042Z,11.72
2022-09-21T19:31:40.850Z,11.63
2022-09-21T19:34:30.115Z,11.55
2022-09-21T19:37:18.985Z,11.51
2022-09-21T19:40:11.868Z,11.42
2022-09-21T19:43:13.373Z,11.33
2022-09-21T19:46:18.355Z,11.28
2022-09-21T19:49:12.444Z,11.28
2022-09-21T19:52:04.725Z,11.01
2022-09-21T19:55:13.776Z,11.08
2022-09-21T19:58:20.500Z,11.04
2022-09-21T20:01:11.618Z,10.79
2022-09-21T20:04:01.964Z,10.81
2022-09-21T20:06:56.144Z,10.69
2022-09-21T20:09:46.754Z,10.56
2022-09-21T20:12:42.097Z,10.59
2022-09-21T20:15:34.232Z,10.37
2022-09-21T20:18:28.249Z,10.09
2022-09-21T20:21:19.558Z,10.37
2022-09-21T20:24:14.125Z,10.42
2022-09-21T20:27:03.949Z,10.35
2022-09-21T20:29:52.632Z,10.19
2022-09-21T20:32:47.364Z,10.23
2022-09-21T20:35:37.303Z,10.21
2022-09-21T20:38:25.811Z,10.20
2022-09-21T20:41:15.890Z,10.16
2022-09-21T20:44:04.511Z,10.04
2022-09-21T20:46:53.214Z,9.90
2022-09-21T20:49:41.763Z,9.90
2022-09-21T20:52:31.575Z,10.01
2022-09-21T20:55:20.326Z,10.00
2022-09-21T20:58:10.519Z,9.92
2022-09-21T21:01:04.176Z,9.94
2022-09-21T21:03:52.770Z,9.87
2022-09-21T21:06:41.435Z,9.83
2022-09-21T21:09:31.236Z,9.71
2022-09-21T21:12:19.735Z,9.59
2022-09-21T21:15:09.114Z,9.59
2022-09-21T21:17:57.567Z,9.68
2022-09-21T21:20:46.001Z,9.63
2022-09-21T21:23:54.964Z,9.45
2022-09-21T21:27:01.248Z,9.48
2022-09-21T21:29:52.837Z,9.64
2022-09-21T21:32:42.683Z,9.48
2022-09-21T21:35:32.084Z,9.41
2022-09-21T21:38:20.522Z,9.40
2022-09-21T21:41:09.029Z,9.46
2022-09-21T21:43:59.090Z,9.45
2022-09-21T21:46:47.924Z,9.27
2022-09-21T21:49:36.428Z,9.30
2022-09-21T21:52:25.042Z,9.24
2022-09-21T21:55:14.268Z,9.30
2022-09-21T21:58:02.703Z,9.25
2022-09-21T22:00:52.603Z,9.10
2022-09-21T22:03:41.768Z,9.18
2022-09-21T22:06:32.076Z,8.99
2022-09-21T22:09:22.073Z,9.04
2022-09-21T22:12:11.150Z,9.18
2022-09-21T22:14:59.608Z,9.02
2022-09-21T22:17:50.769Z,8.79
2022-09-21T22:20:40.529Z,8.85
2022-09-21T22:23:28.936Z,8.78
2022-09-21T22:26:22.358Z,8.79
2022-09-21T22:29:13.432Z,8.81
2022-09-21T22:32:02.341Z,8.67
2022-09-21T22:34:52.196Z,8.72
2022-09-21T22:37:40.632Z,8.71
2022-09-21T22:40:29.285Z,8.71
2022-09-21T22:43:17.877Z,8.68
2022-09-21T22:46:07.276Z,8.70
2022-09-21T22:48:55.791Z,8.61
2022-09-21T22:51:45.593Z,8.53
2022-09-21T22:54:34.070Z,8.45
2022-09-21T22:57:22.524Z,8.61
2022-09-21T23:00:12.265Z,8.47
2022-09-21T23:03:00.697Z,8.17
2022-09-21T23:05:57.084Z,8.44
2022-09-21T23:08:50.391Z,8.38
2022-09-21T23:11:42.699Z,8.02
2022-09-21T23:14:31.149Z,8.30
2022-09-21T23:17:19.605Z,8.08
2022-09-21T23:20:08.409Z,7.96
2022-09-21T23:22:56.861Z,8.11
2022-09-21T23:25:46.740Z,8.16
2022-09-21T23:28:35.787Z,8.10
2022-09-21T23:31:26.591Z,8.07
2022-09-21T23:34:15.871Z,7.99
2022-09-21T23:37:04.411Z,7.97
2022-09-21T23:39:52.841Z,7.74
2022-09-21T23:42:42.621Z,7.92
2022-09-21T23:45:31.089Z,7.94
2022-09-21T23:48:19.602Z,7.86
2022-09-21T23:51:08.400Z,7.95
2022-09-21T23:53:57.772Z,7.80
2022-09-21T23:56:46.913Z,7.80
2022-09-21T23:59:36.666Z,7.74
